Airfield :
LOGIN :

Register | Disclaimer

   EN    FR    IT 

 










Legend :    VFR   Marginal VFR   IFR   Intensive IFR   Very Intensive IFR
Visi :
Ceiling :
>= 8 km
>= 3000ft
5 to 8 km
1000 to 3000 ft
1500m to 5 km
500 to 1000 ft
800 to 1500m
200 to 500 ft
< 800m
< 200 ft
Symbols :   Thunderstorms  Fog  Heavy snow  Heavy precipitations  Wind > 20 kt
SIGMETs :     Misc.  Thunderstorms  Icing  Turbulence  Mountain Waves  Volcanic Ashes







- Airport Elevation : 249 ft


EGOS - RAF Shawbury

CURRENT METAR :
  • 190920Z 24011KT 9999 FEW024 SCT080 17/11 Q1011 TEMPO 6000 SHRA SCT024 RMK BLU TEMPO WHT

EXPIRED METARs :
  • 190850Z 24009KT 9999 FEW020 16/11 Q1011 NOSIG RMK BLU BLU
  • 190820Z 25010KT 9999 FEW018 16/11 Q1010 TEMPO -SHRA SCT022 RMK BLU TEMPO WHT
  • 190750Z 25010KT 9999 FEW020 15/11 Q1010 NOSIG RMK BLU BLU
  • 190650Z 24009KT CAVOK 14/12 Q1010 NOSIG RMK BLU BLU

TAF TAF EGOS
Valid from the 19 at 09:00 until the 19 at 18:00 UTC


190755Z 1909/1918 25012G22KT 9999 FEW022
PROB30
TEMPO 1909/1911 6000 SHRA SCT020
PROB40
TEMPO 1911/1914 6000 SHRA SCT023CB
PROB30
TEMPO 1914/1918 6000 SHRA
No reported NOTAMs for that airfield.



MET'MAP, your aeronautical weather chart ! - Copyright ORBIFLY December 2007 - Disclaimer

ORBIFLY MET'MAP TEAM :

Programming & Development : Alexandra Zaïnal
Concept & Development : Baudouin d'Aumeries
Co-Development & Prog : Marc-Olivier Méhu
Technical & hardware support : Manuel Goepfert

Contact : metmap@orbifly.com




SOURCES & CREDITS :

   NOAA